createdAt,value
2023-05-12T00:00:10.573Z,964.86
2023-05-12T00:01:10.223Z,964.83
2023-05-12T00:02:10.409Z,964.83
2023-05-12T00:03:10.257Z,964.79
2023-05-12T00:04:10.590Z,964.79
2023-05-12T00:05:10.199Z,964.77
2023-05-12T00:06:10.412Z,964.77
2023-05-12T00:07:10.181Z,964.70
2023-05-12T00:08:10.420Z,964.76
2023-05-12T00:09:10.158Z,964.78
2023-05-12T00:10:10.737Z,964.73
2023-05-12T00:11:10.138Z,964.78
2023-05-12T00:12:10.232Z,964.74
2023-05-12T00:13:10.115Z,964.74
2023-05-12T00:14:10.357Z,964.78
2023-05-12T00:15:10.080Z,964.78
2023-05-12T00:16:10.678Z,964.78
2023-05-12T00:17:10.047Z,964.76
2023-05-12T00:18:10.242Z,964.80
2023-05-12T00:19:10.069Z,964.77
2023-05-12T00:20:10.352Z,964.78
2023-05-12T00:21:10.042Z,964.77
2023-05-12T00:22:10.237Z,964.75
2023-05-12T00:23:09.970Z,964.76
2023-05-12T00:24:10.121Z,964.72
2023-05-12T00:25:09.910Z,964.73
2023-05-12T00:26:10.038Z,964.72
2023-05-12T00:27:09.895Z,964.72
2023-05-12T00:28:10.277Z,964.71
2023-05-12T00:29:09.875Z,964.73
2023-05-12T00:30:10.198Z,964.72
2023-05-12T00:31:10.100Z,964.69
2023-05-12T00:32:09.883Z,964.69
2023-05-12T00:33:09.960Z,964.70
2023-05-12T00:34:09.923Z,964.69
2023-05-12T00:35:10.015Z,964.69
2023-05-12T00:36:09.822Z,964.71
2023-05-12T00:37:09.975Z,964.68
2023-05-12T00:38:10.021Z,964.71
2023-05-12T00:39:10.084Z,964.70
2023-05-12T00:40:09.753Z,964.74
2023-05-12T00:41:09.922Z,964.74
2023-05-12T00:42:09.735Z,964.74
2023-05-12T00:43:09.931Z,964.72
2023-05-12T00:44:09.753Z,964.73
2023-05-12T00:45:10.165Z,964.73
2023-05-12T00:46:09.715Z,964.71
2023-05-12T00:47:09.903Z,964.73
2023-05-12T00:48:09.674Z,964.77
2023-05-12T00:49:09.813Z,964.75
2023-05-12T00:50:09.658Z,964.76
2023-05-12T00:51:09.801Z,964.75
2023-05-12T00:52:09.820Z,964.79
2023-05-12T00:53:09.638Z,964.77
2023-05-12T00:54:09.868Z,964.78
2023-05-12T00:55:09.570Z,964.77
2023-05-12T00:56:09.827Z,964.74
2023-05-12T00:57:09.618Z,964.73
2023-05-12T00:58:09.551Z,964.73
2023-05-12T00:59:09.625Z,964.70
2023-05-12T01:00:09.598Z,964.71
2023-05-12T01:01:09.678Z,964.71
2023-05-12T01:02:09.794Z,964.73
2023-05-12T01:03:09.572Z,964.72
2023-05-12T01:04:09.582Z,964.70
2023-05-12T01:05:09.477Z,964.71
2023-05-12T01:06:09.664Z,964.71
2023-05-12T01:07:09.416Z,964.70
2023-05-12T01:08:09.614Z,964.67
2023-05-12T01:09:09.366Z,964.65
2023-05-12T01:10:09.622Z,964.65
2023-05-12T01:11:09.377Z,964.69
2023-05-12T01:12:09.532Z,964.66
2023-05-12T01:13:09.343Z,964.69
2023-05-12T01:14:09.459Z,964.68
2023-05-12T01:15:09.311Z,964.64
2023-05-12T01:16:09.469Z,964.67
2023-05-12T01:17:09.346Z,964.63
2023-05-12T01:18:09.547Z,964.66
2023-05-12T01:19:09.298Z,964.63
2023-05-12T01:20:09.377Z,964.67
2023-05-12T01:21:09.216Z,964.66
2023-05-12T01:22:09.545Z,964.67
2023-05-12T01:23:09.286Z,964.63
2023-05-12T01:24:09.247Z,964.63
2023-05-12T01:25:09.300Z,964.61
2023-05-12T01:26:09.172Z,964.62
2023-05-12T01:27:09.384Z,964.65
2023-05-12T01:28:09.337Z,964.64
2023-05-12T01:29:09.129Z,964.65
2023-05-12T01:30:09.353Z,964.63
2023-05-12T01:31:09.143Z,964.64
2023-05-12T01:32:09.267Z,964.62
2023-05-12T01:33:09.106Z,964.67
2023-05-12T01:34:09.188Z,964.66
2023-05-12T01:35:09.041Z,964.61
2023-05-12T01:36:09.189Z,964.63
2023-05-12T01:37:09.032Z,964.59
2023-05-12T01:38:09.154Z,964.61
2023-05-12T01:39:08.990Z,964.62
2023-05-12T01:40:09.118Z,964.56
2023-05-12T01:41:08.972Z,964.57
2023-05-12T01:42:09.145Z,964.54
2023-05-12T01:43:08.971Z,964.51
2023-05-12T01:44:09.043Z,964.51
2023-05-12T01:45:08.896Z,964.49
2023-05-12T01:46:09.088Z,964.51
2023-05-12T01:47:08.880Z,964.50
2023-05-12T01:48:09.120Z,964.53
2023-05-12T01:49:09.056Z,964.55
2023-05-12T01:50:08.867Z,964.53
2023-05-12T01:51:09.023Z,964.53
2023-05-12T01:52:08.868Z,964.54
2023-05-12T01:53:09.085Z,964.58
2023-05-12T01:54:08.913Z,964.57
2023-05-12T01:55:08.809Z,964.54
2023-05-12T01:56:09.026Z,964.52
2023-05-12T01:57:08.754Z,964.57
2023-05-12T01:58:08.937Z,964.60
2023-05-12T01:59:08.909Z,964.61
2023-05-12T02:00:08.762Z,964.62
2023-05-12T02:01:08.836Z,964.61
2023-05-12T02:02:08.838Z,964.62
2023-05-12T02:03:08.961Z,964.61
2023-05-12T02:04:08.842Z,964.58
2023-05-12T02:05:08.828Z,964.56
2023-05-12T02:06:08.662Z,964.59
2023-05-12T02:07:08.920Z,964.56
2023-05-12T02:08:08.636Z,964.60
2023-05-12T02:09:08.783Z,964.62
2023-05-12T02:10:08.647Z,964.61
2023-05-12T02:11:08.706Z,964.60
2023-05-12T02:12:08.585Z,964.61
2023-05-12T02:13:08.749Z,964.56
2023-05-12T02:14:08.566Z,964.59
2023-05-12T02:15:08.766Z,964.64
2023-05-12T02:16:08.535Z,964.66
2023-05-12T02:17:08.668Z,964.61
2023-05-12T02:18:08.617Z,964.66
2023-05-12T02:19:08.769Z,964.64
2023-05-12T02:20:08.572Z,964.64
2023-05-12T02:21:08.488Z,964.68
2023-05-12T02:22:08.600Z,964.68
2023-05-12T02:23:08.430Z,964.69
2023-05-12T02:24:08.604Z,964.64
2023-05-12T02:25:08.395Z,964.66
2023-05-12T02:26:08.671Z,964.65
2023-05-12T02:27:08.391Z,964.64
2023-05-12T02:28:08.640Z,964.67
2023-05-12T02:29:08.348Z,964.64
2023-05-12T02:30:08.617Z,964.58
2023-05-12T02:31:08.320Z,964.61
2023-05-12T02:32:08.684Z,964.59
2023-05-12T02:33:08.311Z,964.62
2023-05-12T02:34:08.413Z,964.60
2023-05-12T02:35:08.313Z,964.63
2023-05-12T02:36:08.382Z,964.65
2023-05-12T02:37:08.234Z,964.69
2023-05-12T02:38:08.410Z,964.66
2023-05-12T02:39:08.213Z,964.66
2023-05-12T02:40:08.460Z,964.66
2023-05-12T02:41:08.201Z,964.63
2023-05-12T02:42:08.367Z,964.61
2023-05-12T02:43:08.186Z,964.63
2023-05-12T02:44:08.348Z,964.63
2023-05-12T02:45:08.169Z,964.60
2023-05-12T02:46:08.453Z,964.58
2023-05-12T02:47:08.120Z,964.59
2023-05-12T02:48:08.402Z,964.60
2023-05-12T02:49:08.528Z,964.57
2023-05-12T02:50:08.544Z,964.61
2023-05-12T02:51:08.095Z,964.57
2023-05-12T02:52:08.214Z,964.57
2023-05-12T02:53:08.072Z,964.54
2023-05-12T02:54:08.213Z,964.54
2023-05-12T02:55:08.017Z,964.56
2023-05-12T02:56:08.323Z,964.57
2023-05-12T02:57:07.997Z,964.58
2023-05-12T02:58:08.148Z,964.58
2023-05-12T02:59:08.007Z,964.57
2023-05-12T03:00:08.152Z,964.61
2023-05-12T03:01:11.174Z,964.58
2023-05-12T03:02:08.108Z,964.57
2023-05-12T03:03:08.211Z,964.58
2023-05-12T03:04:07.973Z,964.57
2023-05-12T03:05:08.068Z,964.59
2023-05-12T03:06:07.925Z,964.60
2023-05-12T03:07:08.170Z,964.59
2023-05-12T03:08:07.885Z,964.59
2023-05-12T03:09:07.998Z,964.58
2023-05-12T03:10:07.853Z,964.60
2023-05-12T03:11:08.074Z,964.56
2023-05-12T03:12:07.844Z,964.58
2023-05-12T03:13:08.074Z,964.59
2023-05-12T03:14:07.880Z,964.57
2023-05-12T03:15:08.029Z,964.57
2023-05-12T03:16:07.798Z,964.61
2023-05-12T03:17:07.963Z,964.59
2023-05-12T03:18:07.799Z,964.61
2023-05-12T03:19:07.904Z,964.57
2023-05-12T03:20:07.776Z,964.61
2023-05-12T03:21:07.882Z,964.60
2023-05-12T03:22:08.206Z,964.57
2023-05-12T03:23:07.668Z,964.57
2023-05-12T03:24:07.815Z,964.54
2023-05-12T03:25:07.658Z,964.57
2023-05-12T03:26:07.760Z,964.60
2023-05-12T03:27:07.816Z,964.59
2023-05-12T03:28:07.672Z,964.58
2023-05-12T03:29:07.730Z,964.58
2023-05-12T03:30:07.652Z,964.63
2023-05-12T03:31:07.968Z,964.56
2023-05-12T03:32:07.765Z,964.57
2023-05-12T03:33:07.651Z,964.62
2023-05-12T03:34:07.626Z,964.61
2023-05-12T03:35:07.682Z,964.62
2023-05-12T03:36:07.577Z,964.63
2023-05-12T03:37:07.858Z,964.59
2023-05-12T03:38:07.510Z,964.60
2023-05-12T03:39:07.958Z,964.62
2023-05-12T03:40:07.481Z,964.60
2023-05-12T03:41:07.618Z,964.59
2023-05-12T03:42:07.516Z,964.58
2023-05-12T03:43:07.725Z,964.59
2023-05-12T03:44:07.453Z,964.52
2023-05-12T03:45:07.523Z,964.52
2023-05-12T03:46:07.498Z,964.52
2023-05-12T03:47:07.703Z,964.51
2023-05-12T03:48:07.638Z,964.51
2023-05-12T03:49:07.386Z,964.51
2023-05-12T03:50:07.489Z,964.53
2023-05-12T03:51:07.345Z,964.54
2023-05-12T03:52:07.498Z,964.54
2023-05-12T03:53:07.493Z,964.51
2023-05-12T03:54:07.420Z,964.56
2023-05-12T03:55:07.502Z,964.53
2023-05-12T03:56:07.378Z,964.54
2023-05-12T03:57:07.405Z,964.53
2023-05-12T03:58:07.314Z,964.51
2023-05-12T03:59:07.374Z,964.53
2023-05-12T04:00:07.293Z,964.51
2023-05-12T04:01:07.276Z,964.55
2023-05-12T04:02:07.227Z,964.54
2023-05-12T04:03:07.413Z,964.54
2023-05-12T04:04:07.237Z,964.54
2023-05-12T04:05:07.557Z,964.52
2023-05-12T04:06:07.153Z,964.54
2023-05-12T04:07:07.283Z,964.55
2023-05-12T04:08:07.193Z,964.58
2023-05-12T04:09:07.296Z,964.59
2023-05-12T04:10:07.130Z,964.58
2023-05-12T04:11:07.324Z,964.55
2023-05-12T04:12:07.084Z,964.56
2023-05-12T04:13:07.261Z,964.54
2023-05-12T04:14:07.032Z,964.51
2023-05-12T04:15:07.193Z,964.50
2023-05-12T04:16:07.180Z,964.50
2023-05-12T04:17:07.163Z,964.49
2023-05-12T04:18:07.001Z,964.53
2023-05-12T04:19:07.214Z,964.52
2023-05-12T04:20:06.994Z,964.52
2023-05-12T04:21:07.137Z,964.53
2023-05-12T04:22:07.006Z,964.51
2023-05-12T04:23:07.105Z,964.55
2023-05-12T04:24:07.185Z,964.51
2023-05-12T04:25:06.944Z,964.54
2023-05-12T04:26:07.154Z,964.54
2023-05-12T04:27:07.010Z,964.52
2023-05-12T04:28:07.002Z,964.49
2023-05-12T04:29:06.896Z,964.54
2023-05-12T04:30:07.050Z,964.53
2023-05-12T04:31:07.308Z,964.56
2023-05-12T04:32:07.054Z,964.57
2023-05-12T04:33:06.876Z,964.58
2023-05-12T04:34:06.855Z,964.61
2023-05-12T04:35:06.788Z,964.59
2023-05-12T04:36:07.061Z,964.61
2023-05-12T04:37:07.120Z,964.60
2023-05-12T04:38:06.773Z,964.59
2023-05-12T04:39:06.783Z,964.65
2023-05-12T04:40:06.797Z,964.65
2023-05-12T04:41:06.727Z,964.65
2023-05-12T04:42:06.980Z,964.63
2023-05-12T04:43:06.699Z,964.64
2023-05-12T04:44:06.837Z,964.68
2023-05-12T04:45:06.684Z,964.67
2023-05-12T04:46:06.878Z,964.63
2023-05-12T04:47:06.921Z,964.65
2023-05-12T04:48:06.881Z,964.67
2023-05-12T04:49:06.913Z,964.69
2023-05-12T04:50:06.726Z,964.68
2023-05-12T04:51:06.615Z,964.68
2023-05-12T04:52:06.810Z,964.67
2023-05-12T04:53:06.614Z,964.71
2023-05-12T04:54:06.698Z,964.70
2023-05-12T04:55:06.810Z,964.73
2023-05-12T04:56:06.535Z,964.76
2023-05-12T04:57:06.810Z,964.73
2023-05-12T04:58:06.590Z,964.78
2023-05-12T04:59:07.059Z,964.74
2023-05-12T05:00:06.551Z,964.83
2023-05-12T05:01:06.767Z,964.81
2023-05-12T05:02:06.449Z,964.78
2023-05-12T05:03:06.705Z,964.82
2023-05-12T05:04:06.530Z,964.79
2023-05-12T05:05:06.649Z,964.79
2023-05-12T05:06:06.392Z,964.82
2023-05-12T05:07:06.593Z,964.83
2023-05-12T05:08:06.368Z,964.81
2023-05-12T05:09:06.924Z,964.81
2023-05-12T05:10:06.629Z,964.82
2023-05-12T05:11:06.595Z,964.80
2023-05-12T05:12:06.573Z,964.82
2023-05-12T05:13:06.573Z,964.84
2023-05-12T05:14:06.881Z,964.82
2023-05-12T05:15:06.579Z,964.82
2023-05-12T05:16:06.309Z,964.83
2023-05-12T05:17:06.359Z,964.89
2023-05-12T05:18:06.466Z,964.86
2023-05-12T05:19:09.366Z,964.85
2023-05-12T05:20:11.373Z,964.88
2023-05-12T05:21:06.341Z,964.87
2023-05-12T05:22:06.267Z,964.86
2023-05-12T05:23:06.299Z,964.86
2023-05-12T05:24:07.853Z,964.87
2023-05-12T05:25:06.207Z,964.91
2023-05-12T05:26:06.307Z,964.91
2023-05-12T05:27:06.359Z,964.89
2023-05-12T05:28:06.185Z,964.89
2023-05-12T05:29:06.335Z,964.92
2023-05-12T05:30:06.150Z,964.91
2023-05-12T05:31:06.385Z,964.95
2023-05-12T05:32:06.100Z,964.92
2023-05-12T05:33:06.263Z,964.94
2023-05-12T05:34:06.095Z,964.93
2023-05-12T05:35:06.159Z,964.94
2023-05-12T05:36:06.018Z,964.96
2023-05-12T05:37:06.452Z,964.90
2023-05-12T05:38:06.103Z,964.91
2023-05-12T05:39:06.122Z,964.89
2023-05-12T05:40:05.958Z,964.91
2023-05-12T05:41:06.042Z,964.95
2023-05-12T05:42:06.007Z,964.95
2023-05-12T05:43:06.173Z,964.94
2023-05-12T05:44:05.978Z,964.94
2023-05-12T05:45:06.170Z,964.96
2023-05-12T05:46:06.724Z,964.94
2023-05-12T05:47:06.589Z,964.97
2023-05-12T05:48:05.935Z,964.96
2023-05-12T05:49:05.977Z,964.93
2023-05-12T05:50:06.114Z,964.94
2023-05-12T05:51:05.975Z,964.95
2023-05-12T05:52:05.940Z,964.95
2023-05-12T05:53:06.092Z,964.95
2023-05-12T05:54:05.922Z,964.96
2023-05-12T05:55:06.065Z,964.95
2023-05-12T05:56:05.755Z,964.96
2023-05-12T05:57:05.819Z,964.94
2023-05-12T05:58:05.762Z,964.96
2023-05-12T05:59:05.924Z,964.98
2023-05-12T06:00:05.747Z,964.97
2023-05-12T06:01:05.840Z,964.99
2023-05-12T06:02:05.712Z,965.03
2023-05-12T06:03:06.103Z,965.00
2023-05-12T06:04:05.928Z,965.03
2023-05-12T06:05:05.868Z,965.04
2023-05-12T06:06:05.749Z,965.03
2023-05-12T06:07:05.771Z,965.04
2023-05-12T06:08:05.800Z,965.05
2023-05-12T06:09:05.730Z,965.07
2023-05-12T06:10:05.592Z,965.10
2023-05-12T06:11:05.710Z,965.10
2023-05-12T06:12:05.567Z,965.11
2023-05-12T06:13:05.704Z,965.10
2023-05-12T06:14:05.571Z,965.09
2023-05-12T06:15:05.677Z,965.09
2023-05-12T06:16:05.645Z,965.12
2023-05-12T06:17:06.011Z,965.12
2023-05-12T06:18:05.781Z,965.12
2023-05-12T06:19:05.613Z,965.16
2023-05-12T06:20:05.709Z,965.15
2023-05-12T06:21:05.569Z,965.14
2023-05-12T06:22:05.802Z,965.16
2023-05-12T06:23:05.504Z,965.21
2023-05-12T06:24:05.478Z,965.22
2023-05-12T06:25:05.485Z,965.15
2023-05-12T06:26:05.603Z,965.20
2023-05-12T06:27:05.490Z,965.19
2023-05-12T06:28:05.393Z,965.14
2023-05-12T06:29:05.980Z,965.14
2023-05-12T06:30:05.517Z,965.11
2023-05-12T06:31:05.388Z,965.16
2023-05-12T06:32:05.429Z,965.16
2023-05-12T06:33:05.918Z,965.15
2023-05-12T06:34:05.418Z,965.16
2023-05-12T06:35:05.779Z,965.16
2023-05-12T06:36:05.378Z,965.17
2023-05-12T06:37:05.371Z,965.21
2023-05-12T06:38:05.653Z,965.18
2023-05-12T06:39:05.547Z,965.19
2023-05-12T06:40:05.461Z,965.16
2023-05-12T06:41:05.700Z,965.21
2023-05-12T06:42:06.360Z,965.22
2023-05-12T06:43:05.331Z,965.18
2023-05-12T06:44:05.636Z,965.19
2023-05-12T06:45:05.429Z,965.20
2023-05-12T06:46:05.362Z,965.20
2023-05-12T06:47:05.411Z,965.19
2023-05-12T06:48:05.745Z,965.21
2023-05-12T06:49:05.188Z,965.20
2023-05-12T06:50:05.357Z,965.21
2023-05-12T06:51:05.223Z,965.20
2023-05-12T06:52:05.243Z,965.19
2023-05-12T06:53:05.330Z,965.19
2023-05-12T06:54:05.310Z,965.19
2023-05-12T06:55:05.466Z,965.14
2023-05-12T06:56:05.220Z,965.17
2023-05-12T06:57:05.499Z,965.15
2023-05-12T06:58:05.092Z,965.19
2023-05-12T06:59:05.141Z,965.17
2023-05-12T07:00:05.082Z,965.17
2023-05-12T07:01:05.342Z,965.17
2023-05-12T07:02:05.067Z,965.17
2023-05-12T07:03:05.647Z,965.14
2023-05-12T07:04:05.132Z,965.15
2023-05-12T07:05:05.726Z,965.19
2023-05-12T07:06:05.732Z,965.21
2023-05-12T07:07:05.295Z,965.19
2023-05-12T07:08:05.411Z,965.14
2023-05-12T07:09:05.111Z,965.14
2023-05-12T07:10:05.174Z,965.11
2023-05-12T07:11:04.968Z,965.08
2023-05-12T07:12:05.041Z,965.07
2023-05-12T07:13:04.930Z,965.09
2023-05-12T07:14:04.882Z,965.08
2023-05-12T07:15:05.444Z,965.13
2023-05-12T07:16:04.939Z,965.12
2023-05-12T07:17:04.883Z,965.14
2023-05-12T07:18:04.853Z,965.16
2023-05-12T07:19:04.969Z,965.15
2023-05-12T07:20:04.964Z,965.16
2023-05-12T07:21:04.817Z,965.16
2023-05-12T07:22:04.839Z,965.14
2023-05-12T07:23:05.065Z,965.10
2023-05-12T07:24:04.717Z,965.16
2023-05-12T07:25:05.109Z,965.14
2023-05-12T07:26:04.920Z,965.14
2023-05-12T07:27:04.747Z,965.13
2023-05-12T07:28:05.076Z,965.12
2023-05-12T07:29:04.814Z,965.13
2023-05-12T07:30:05.481Z,965.11
2023-05-12T07:31:05.003Z,965.13
2023-05-12T07:32:05.378Z,965.12
2023-05-12T07:33:05.226Z,965.12
2023-05-12T07:34:05.009Z,965.12
2023-05-12T07:35:04.869Z,965.11
2023-05-12T07:36:05.132Z,965.15
2023-05-12T07:37:05.080Z,965.12
2023-05-12T07:38:04.633Z,965.16
2023-05-12T07:39:04.655Z,965.15
2023-05-12T07:40:04.913Z,965.18
2023-05-12T07:41:04.850Z,965.18
2023-05-12T07:42:05.392Z,965.15
2023-05-12T07:43:11.072Z,965.18
2023-05-12T07:44:04.857Z,965.16
2023-05-12T07:45:04.651Z,965.15
2023-05-12T07:46:04.649Z,965.15
2023-05-12T07:47:05.499Z,965.12
2023-05-12T07:48:05.225Z,965.14
2023-05-12T07:49:04.827Z,965.15
2023-05-12T07:50:04.723Z,965.15
2023-05-12T07:51:04.760Z,965.16
2023-05-12T07:52:04.646Z,965.18
2023-05-12T07:53:04.686Z,965.16
2023-05-12T07:54:05.308Z,965.13
2023-05-12T07:55:04.850Z,965.16
2023-05-12T07:56:04.580Z,965.13
2023-05-12T07:57:05.069Z,965.10
2023-05-12T07:58:04.387Z,965.09
2023-05-12T07:59:04.703Z,965.08
2023-05-12T08:00:05.098Z,965.12
2023-05-12T08:01:05.103Z,965.11
2023-05-12T08:02:04.444Z,965.13
2023-05-12T08:03:04.615Z,965.14
2023-05-12T08:04:04.591Z,965.14
2023-05-12T08:05:04.272Z,965.13
2023-05-12T08:06:04.338Z,965.13
2023-05-12T08:07:04.385Z,965.15
2023-05-12T08:08:04.384Z,965.14
2023-05-12T08:09:04.591Z,965.11
2023-05-12T08:10:04.236Z,965.12
2023-05-12T08:11:04.316Z,965.15
2023-05-12T08:12:04.351Z,965.09
2023-05-12T08:13:04.139Z,965.08
2023-05-12T08:14:04.265Z,965.07
2023-05-12T08:15:04.498Z,965.09
2023-05-12T08:16:04.288Z,965.11
2023-05-12T08:17:04.304Z,965.07
2023-05-12T08:18:05.079Z,965.11
2023-05-12T08:19:04.581Z,965.05
2023-05-12T08:20:04.188Z,965.07
2023-05-12T08:21:04.436Z,965.07
2023-05-12T08:22:04.116Z,965.05
2023-05-12T08:23:04.092Z,965.05
2023-05-12T08:24:04.251Z,965.02
2023-05-12T08:25:04.218Z,965.02
2023-05-12T08:26:04.184Z,965.01
2023-05-12T08:27:04.082Z,965.06
2023-05-12T08:28:04.072Z,965.08
2023-05-12T08:29:04.311Z,965.10
2023-05-12T08:30:04.556Z,965.05
2023-05-12T08:31:05.139Z,965.09
2023-05-12T08:32:04.464Z,965.06
2023-05-12T08:33:04.067Z,965.09
2023-05-12T08:34:10.277Z,965.05
2023-05-12T08:35:03.996Z,965.07
2023-05-12T08:36:03.944Z,965.01
2023-05-12T08:37:03.751Z,965.07
2023-05-12T08:38:04.196Z,965.06
2023-05-12T08:39:03.835Z,965.10
2023-05-12T08:40:04.437Z,965.12
2023-05-12T08:41:03.984Z,965.05
2023-05-12T08:42:04.385Z,965.08
2023-05-12T08:43:04.012Z,965.13
2023-05-12T08:44:04.392Z,965.09
2023-05-12T08:45:04.219Z,965.10
2023-05-12T08:46:04.516Z,965.11
2023-05-12T08:47:04.472Z,965.08
2023-05-12T08:48:03.846Z,965.09
2023-05-12T08:49:04.360Z,965.06
2023-05-12T08:50:04.014Z,965.08
2023-05-12T08:51:03.925Z,965.06
2023-05-12T08:52:04.267Z,965.04
2023-05-12T08:53:04.009Z,965.04
2023-05-12T08:54:03.870Z,964.98
2023-05-12T08:55:03.770Z,965.00
2023-05-12T08:58:03.612Z,965.01
2023-05-12T08:59:04.584Z,965.02
2023-05-12T09:00:03.455Z,965.04
2023-05-12T09:01:04.187Z,965.04
2023-05-12T09:02:03.624Z,965.04
2023-05-12T09:03:03.573Z,965.04
2023-05-12T09:04:03.612Z,965.05
2023-05-12T09:05:03.679Z,965.04
2023-05-12T09:06:03.578Z,965.04
2023-05-12T09:07:03.697Z,965.05
2023-05-12T09:08:03.463Z,965.07
2023-05-12T09:09:03.882Z,965.06
2023-05-12T09:10:03.408Z,965.09
2023-05-12T09:11:03.711Z,965.10
2023-05-12T09:12:03.751Z,965.05
2023-05-12T09:13:03.602Z,965.07
2023-05-12T09:14:03.802Z,965.05
2023-05-12T09:15:03.997Z,965.08
2023-05-12T09:16:03.711Z,965.07
2023-05-12T09:17:03.496Z,965.08
2023-05-12T09:18:03.789Z,965.07
2023-05-12T09:19:05.419Z,965.06
2023-05-12T09:20:03.306Z,965.07
2023-05-12T09:21:03.623Z,965.10
2023-05-12T09:22:03.892Z,965.07
2023-05-12T09:23:03.172Z,965.09
2023-05-12T09:24:03.428Z,965.09
2023-05-12T09:25:03.444Z,965.09
2023-05-12T09:26:03.420Z,965.09
2023-05-12T09:27:03.342Z,965.10
2023-05-12T09:28:03.260Z,965.11
2023-05-12T09:29:03.174Z,965.10
2023-05-12T09:30:03.872Z,965.10
2023-05-12T09:31:03.289Z,965.14
2023-05-12T09:32:03.853Z,965.15
2023-05-12T09:33:03.460Z,965.10
2023-05-12T09:34:03.744Z,965.10
2023-05-12T09:35:03.677Z,965.09
2023-05-12T09:36:03.727Z,965.09
2023-05-12T09:37:03.113Z,965.13
2023-05-12T09:38:03.597Z,965.13
2023-05-12T09:39:03.284Z,965.11
2023-05-12T09:40:03.008Z,965.13
2023-05-12T09:41:03.684Z,965.10
2023-05-12T09:42:03.461Z,965.13
2023-05-12T09:43:04.103Z,965.14
2023-05-12T09:44:03.269Z,965.15
2023-05-12T09:45:03.276Z,965.14
2023-05-12T09:46:03.541Z,965.11
2023-05-12T09:47:03.307Z,965.11
2023-05-12T09:48:03.903Z,965.13
2023-05-12T09:49:03.781Z,965.08
2023-05-12T09:50:04.064Z,965.11
2023-05-12T09:51:03.516Z,965.08
2023-05-12T09:52:03.912Z,965.10
2023-05-12T09:53:03.230Z,965.07
2023-05-12T09:54:03.566Z,965.09
2023-05-12T09:55:03.372Z,965.09
2023-05-12T09:56:03.589Z,965.09
2023-05-12T09:57:03.079Z,965.08
2023-05-12T09:58:03.193Z,965.10
2023-05-12T09:59:03.031Z,965.08
2023-05-12T10:00:04.891Z,965.07
2023-05-12T10:02:03.406Z,965.05
2023-05-12T10:03:03.203Z,965.07
2023-05-12T10:04:03.630Z,965.04
2023-05-12T10:05:03.598Z,965.05
2023-05-12T10:06:05.604Z,965.04
2023-05-12T10:07:03.469Z,965.05
2023-05-12T10:08:02.797Z,965.07
2023-05-12T10:09:02.950Z,965.07
2023-05-12T10:10:02.720Z,965.04
2023-05-12T10:11:02.916Z,965.01
2023-05-12T10:12:02.710Z,965.00
2023-05-12T10:13:02.722Z,965.03
2023-05-12T10:14:02.716Z,964.99
2023-05-12T10:15:02.621Z,964.99
2023-05-12T10:16:02.751Z,965.01
2023-05-12T10:17:02.755Z,965.02
2023-05-12T10:18:03.692Z,965.03
2023-05-12T10:19:02.536Z,964.99
2023-05-12T10:20:02.746Z,964.97
2023-05-12T10:21:02.424Z,965.04
2023-05-12T10:22:02.476Z,965.01
2023-05-12T10:23:02.386Z,965.01
2023-05-12T10:24:02.524Z,965.00
2023-05-12T10:25:02.369Z,965.01
2023-05-12T10:26:02.544Z,965.01
2023-05-12T10:27:02.319Z,965.01
2023-05-12T10:28:02.503Z,964.99
2023-05-12T10:29:02.364Z,964.99
2023-05-12T10:30:03.040Z,965.01
2023-05-12T10:31:02.347Z,964.99
2023-05-12T10:32:02.382Z,965.01
2023-05-12T10:33:02.362Z,965.02
2023-05-12T10:34:02.385Z,964.99
2023-05-12T10:35:02.847Z,964.94
2023-05-12T10:36:02.251Z,964.98
2023-05-12T10:37:02.391Z,964.98
2023-05-12T10:38:02.301Z,964.99
2023-05-12T10:39:02.447Z,965.00
2023-05-12T10:40:02.204Z,964.97
2023-05-12T10:41:02.300Z,964.97
2023-05-12T10:42:02.290Z,964.95
2023-05-12T10:43:02.317Z,964.95
2023-05-12T10:44:03.570Z,964.95
2023-05-12T10:45:03.241Z,964.97
2023-05-12T10:46:03.009Z,964.96
2023-05-12T10:47:02.498Z,964.96
2023-05-12T10:48:02.943Z,964.96
2023-05-12T10:49:02.433Z,964.98
2023-05-12T10:50:02.121Z,964.97
2023-05-12T10:51:02.322Z,964.96
2023-05-12T10:52:02.126Z,964.95
2023-05-12T10:53:02.175Z,964.95
2023-05-12T10:54:02.313Z,964.97
2023-05-12T10:55:02.236Z,964.97
2023-05-12T10:56:02.425Z,964.94
2023-05-12T10:57:02.818Z,964.93
2023-05-12T10:58:02.635Z,964.97
2023-05-12T10:59:02.418Z,964.98
2023-05-12T11:00:03.633Z,964.98
2023-05-12T11:01:02.973Z,964.97
2023-05-12T11:02:03.676Z,965.01
2023-05-12T11:03:08.144Z,965.00
2023-05-12T11:04:02.097Z,964.99
2023-05-12T11:05:02.504Z,965.03
2023-05-12T11:06:02.915Z,965.01
2023-05-12T11:07:02.916Z,965.02
2023-05-12T11:08:02.618Z,964.97
2023-05-12T11:09:03.272Z,964.99
2023-05-12T11:10:02.241Z,965.00
2023-05-12T11:11:03.223Z,965.01
2023-05-12T11:12:02.840Z,965.04
2023-05-12T11:13:01.784Z,965.03
2023-05-12T11:14:02.074Z,965.06
2023-05-12T11:15:01.826Z,965.03
2023-05-12T11:16:02.038Z,965.07
2023-05-12T11:17:01.848Z,965.13
2023-05-12T11:18:01.946Z,965.12
2023-05-12T11:19:02.105Z,965.15
2023-05-12T11:20:02.038Z,965.11
2023-05-12T11:21:01.836Z,965.13
2023-05-12T11:22:01.793Z,965.18
2023-05-12T11:23:02.037Z,965.16
2023-05-12T11:24:01.690Z,965.14
2023-05-12T11:25:01.882Z,965.18
2023-05-12T11:26:01.673Z,965.24
2023-05-12T11:27:01.666Z,965.23
2023-05-12T11:28:01.600Z,965.22
2023-05-12T11:29:01.737Z,965.22
2023-05-12T11:30:01.576Z,965.21
2023-05-12T11:31:01.645Z,965.21
2023-05-12T11:32:01.694Z,965.22
2023-05-12T11:33:01.682Z,965.26
2023-05-12T11:34:11.273Z,965.24
2023-05-12T11:35:01.566Z,965.24
2023-05-12T11:36:02.181Z,965.23
2023-05-12T11:37:01.562Z,965.22
2023-05-12T11:38:01.925Z,965.20
2023-05-12T11:39:01.481Z,965.23
2023-05-12T11:40:01.578Z,965.22
2023-05-12T11:41:01.514Z,965.23
2023-05-12T11:42:11.605Z,965.22
2023-05-12T11:43:01.486Z,965.21
2023-05-12T11:44:01.411Z,965.24
2023-05-12T11:45:01.514Z,965.19
2023-05-12T11:46:01.489Z,965.23
2023-05-12T11:47:01.505Z,965.21
2023-05-12T11:48:01.540Z,965.20
2023-05-12T11:49:02.497Z,965.22
2023-05-12T11:50:01.424Z,965.20
2023-05-12T11:51:01.714Z,965.22
2023-05-12T11:52:01.338Z,965.18
2023-05-12T11:53:01.373Z,965.18
2023-05-12T11:54:02.358Z,965.15
2023-05-12T11:55:01.392Z,965.13
2023-05-12T11:56:01.370Z,965.16
2023-05-12T11:57:01.598Z,965.12
2023-05-12T11:58:01.672Z,965.12
2023-05-12T11:59:01.237Z,965.14
2023-05-12T12:00:01.407Z,965.17
2023-05-12T12:01:01.178Z,965.15
2023-05-12T12:02:01.389Z,965.18
2023-05-12T12:03:01.394Z,965.17
2023-05-12T12:04:01.539Z,965.19
2023-05-12T12:05:01.288Z,965.21
2023-05-12T12:06:01.252Z,965.20
2023-05-12T12:07:01.130Z,965.21
2023-05-12T12:08:01.318Z,965.22
2023-05-12T12:09:01.092Z,965.23
2023-05-12T12:10:01.519Z,965.25
2023-05-12T12:11:03.551Z,965.21
2023-05-12T12:12:01.095Z,965.24
2023-05-12T12:13:01.045Z,965.23
2023-05-12T12:14:01.223Z,965.25
2023-05-12T12:15:01.259Z,965.28
2023-05-12T12:16:01.313Z,965.28
2023-05-12T12:17:01.272Z,965.30
2023-05-12T12:18:00.959Z,965.27
2023-05-12T12:19:01.219Z,965.26
2023-05-12T12:20:00.940Z,965.31
2023-05-12T12:21:01.144Z,965.25
2023-05-12T12:22:00.885Z,965.25
2023-05-12T12:23:01.043Z,965.26
2023-05-12T12:24:02.097Z,965.27
2023-05-12T12:25:00.978Z,965.26
2023-05-12T12:26:00.888Z,965.26
2023-05-12T12:27:00.999Z,965.30
2023-05-12T12:28:01.026Z,965.30
2023-05-12T12:29:02.500Z,965.31
2023-05-12T12:30:01.397Z,965.32
2023-05-12T12:31:02.257Z,965.30